Time;durP1;ratioP1;P1;durP2;ratioP2;P2;SDS_P1;SDS_P2;PMS_P1;PMS_P2;Temp;Humidity;BMP_temperature;BMP_pressure;BME280_temperature;BME280_humidity;BME280_pressure;Samples;Min_cycle;Max_cycle;Signal;HPM_P1;HPM_P2
2021/05/20 00:00:10;;;;;;;14.25;8.50;;;20.50;61.50;;;;;;5053394;28;20414;-85
2021/05/20 00:02:37;;;;;;;16.20;8.73;;;20.50;61.60;;;;;;5045119;28;20017;-88
2021/05/20 00:05:04;;;;;;;13.15;7.22;;;20.50;61.70;;;;;;5054105;28;20136;-85
2021/05/20 00:07:30;;;;;;;11.38;7.50;;;20.50;61.90;;;;;;5056954;28;20083;-81
2021/05/20 00:09:57;;;;;;;14.30;8.13;;;20.50;62.00;;;;;;5059654;28;20020;-82
2021/05/20 00:12:23;;;;;;;10.88;8.77;;;20.50;62.10;;;;;;5057735;28;20147;-85
2021/05/20 00:14:49;;;;;;;10.10;8.20;;;20.50;61.90;;;;;;5054408;28;20104;-85
2021/05/20 00:17:15;;;;;;;10.65;8.25;;;20.50;62.00;;;;;;5055195;28;20014;-83
2021/05/20 00:19:41;;;;;;;13.95;8.40;;;20.50;62.10;;;;;;5055954;28;20028;-86
2021/05/20 00:22:07;;;;;;;13.65;7.72;;;20.50;61.70;;;;;;5053256;28;20029;-85
2021/05/20 00:24:32;;;;;;;18.33;8.52;;;20.50;62.20;;;;;;5055808;28;20040;-85
2021/05/20 00:26:58;;;;;;;10.77;8.10;;;20.40;62.30;;;;;;5055216;28;20060;-86
2021/05/20 00:29:24;;;;;;;16.48;9.23;;;20.40;62.70;;;;;;5062326;28;20116;-84
2021/05/20 00:31:50;;;;;;;13.88;8.25;;;20.30;63.00;;;;;;5056298;28;20486;-85
2021/05/20 00:34:16;;;;;;;12.48;8.90;;;20.20;63.40;;;;;;5054980;28;20017;-85
2021/05/20 00:36:42;;;;;;;15.93;8.75;;;20.10;63.90;;;;;;5054672;28;20028;-84
2021/05/20 00:39:07;;;;;;;11.40;8.18;;;20.10;64.20;;;;;;5048902;28;20025;-85
2021/05/20 00:41:33;;;;;;;12.50;8.70;;;20.10;64.20;;;;;;5055722;28;20021;-86
2021/05/20 00:43:59;;;;;;;13.95;8.75;;;20.20;64.00;;;;;;5054963;28;20028;-84
2021/05/20 00:46:25;;;;;;;15.35;9.40;;;20.20;64.20;;;;;;5054214;28;20029;-86
2021/05/20 00:48:51;;;;;;;13.68;9.07;;;20.20;64.00;;;;;;5054993;28;20051;-86
2021/05/20 00:51:17;;;;;;;12.63;8.82;;;20.10;64.20;;;;;;5054645;28;20033;-86
2021/05/20 00:53:43;;;;;;;15.20;8.73;;;20.00;64.80;;;;;;5054802;28;20017;-84
2021/05/20 00:56:10;;;;;;;16.00;9.23;;;19.80;65.10;;;;;;5054618;28;20025;-87
2021/05/20 00:58:36;;;;;;;;;;;19.80;65.70;;;;;;5055073;28;20438;-86
2021/05/20 01:01:02;;;;;;;9.43;7.60;;;19.70;65.10;;;;;;5054295;28;19948;-86
2021/05/20 01:03:28;;;;;;;15.97;8.20;;;19.60;66.30;;;;;;5054561;28;20482;-86
2021/05/20 01:05:55;;;;;;;11.05;6.95;;;19.50;67.20;;;;;;5042956;28;20305;-88
2021/05/20 01:08:27;;;;;;;10.98;8.13;;;19.30;68.30;;;;;;5054205;28;20056;-85
2021/05/20 01:10:54;;;;;;;22.58;11.60;;;19.20;69.00;;;;;;5054351;28;20079;-85
2021/05/20 01:13:21;;;;;;;9.63;8.45;;;19.20;69.40;;;;;;5054984;28;20018;-85
2021/05/20 01:15:47;;;;;;;11.13;8.55;;;19.10;69.60;;;;;;5054787;28;20702;-88
2021/05/20 01:18:13;;;;;;;10.88;7.35;;;19.10;70.20;;;;;;5056034;28;20054;-86
2021/05/20 01:20:42;;;;;;;11.23;8.85;;;18.90;70.60;;;;;;5051209;28;20024;-87
2021/05/20 01:23:11;;;;;;;9.93;8.93;;;18.80;71.10;;;;;;5040678;28;20040;-86
2021/05/20 01:25:39;;;;;;;12.20;8.70;;;18.80;71.30;;;;;;5049359;28;20025;-86
2021/05/20 01:28:10;;;;;;;9.68;8.68;;;18.90;71.30;;;;;;5055888;28;20037;-85
2021/05/20 01:30:38;;;;;;;10.07;7.88;;;18.90;71.10;;;;;;5045112;28;20064;-86
2021/05/20 01:33:04;;;;;;;9.38;7.60;;;18.90;71.00;;;;;;5058969;28;20017;-87
2021/05/20 01:35:30;;;;;;;7.35;6.57;;;19.00;70.90;;;;;;5037762;28;20029;-86
2021/05/20 01:38:26;;;;;;;7.15;5.80;;;19.00;70.30;;;;;;5056696;28;20486;-86
2021/05/20 01:40:52;;;;;;;8.02;6.10;;;18.90;70.20;;;;;;5055332;28;20437;-86
2021/05/20 01:43:18;;;;;;;8.05;6.93;;;18.80;70.70;;;;;;5042820;28;20108;-85
2021/05/20 01:45:56;;;;;;;6.65;5.85;;;18.70;71.10;;;;;;5066307;28;20506;-87
2021/05/20 01:48:23;;;;;;;7.10;6.05;;;18.60;71.60;;;;;;5054398;28;20140;-86
2021/05/20 01:50:48;;;;;;;6.90;6.15;;;18.70;71.60;;;;;;5061384;28;20017;-87
2021/05/20 01:53:14;;;;;;;6.70;5.80;;;18.70;71.60;;;;;;5054769;28;20021;-87
2021/05/20 01:55:41;;;;;;;7.88;6.03;;;18.70;71.60;;;;;;5055177;28;20025;-87
2021/05/20 01:58:07;;;;;;;6.63;5.93;;;18.80;71.80;;;;;;5053860;28;20021;-87
2021/05/20 02:00:33;;;;;;;6.30;5.55;;;18.80;71.80;;;;;;5053059;28;20025;-86
2021/05/20 02:02:59;;;;;;;7.40;6.65;;;18.70;71.80;;;;;;5053545;28;20017;-87
2021/05/20 02:05:25;;;;;;;8.48;6.80;;;18.60;72.20;;;;;;5055108;28;20031;-86
2021/05/20 02:07:51;;;;;;;8.27;6.00;;;18.60;72.60;;;;;;5052365;28;20021;-84
2021/05/20 02:10:17;;;;;;;7.70;6.60;;;18.60;72.80;;;;;;5053381;28;20457;-82
2021/05/20 02:12:43;;;;;;;7.30;6.38;;;18.50;73.20;;;;;;5052863;28;20133;-83
2021/05/20 02:15:09;;;;;;;7.65;6.88;;;18.40;73.40;;;;;;5052591;28;20017;-83
2021/05/20 02:17:36;;;;;;;9.00;7.10;;;18.40;73.80;;;;;;5052145;28;20040;-85
2021/05/20 02:20:08;;;;;;;7.27;6.53;;;18.40;74.20;;;;;;5034465;28;20021;-84
2021/05/20 02:22:34;;;;;;;7.88;6.55;;;18.40;74.20;;;;;;5052203;28;20345;-83
2021/05/20 02:24:59;;;;;;;12.25;5.88;;;18.40;74.20;;;;;;5051853;28;20024;-84
2021/05/20 02:27:26;;;;;;;8.15;6.68;;;18.60;74.00;;;;;;5051990;28;20041;-83
2021/05/20 02:29:51;;;;;;;7.78;6.50;;;18.90;73.40;;;;;;5053213;28;20017;-84
2021/05/20 02:32:17;;;;;;;9.60;7.03;;;19.10;72.90;;;;;;5057965;28;20085;-86
2021/05/20 02:34:43;;;;;;;7.53;6.22;;;19.30;72.20;;;;;;5055818;28;20048;-88
2021/05/20 02:37:09;;;;;;;10.50;7.90;;;19.40;71.90;;;;;;5054474;28;20069;-85
2021/05/20 02:39:35;;;;;;;8.30;7.45;;;19.40;71.10;;;;;;5037684;28;20860;-85
2021/05/20 02:42:01;;;;;;;10.27;8.20;;;19.40;71.30;;;;;;5055109;28;20021;-87
2021/05/20 02:44:27;;;;;;;12.88;7.13;;;19.50;70.90;;;;;;5052878;28;20467;-87
2021/05/20 02:46:53;;;;;;;11.63;7.85;;;19.60;71.20;;;;;;5053287;28;20044;-85
2021/05/20 02:49:19;;;;;;;12.23;7.65;;;19.50;70.80;;;;;;5052903;28;20029;-85
2021/05/20 02:51:45;;;;;;;8.98;7.40;;;19.60;71.10;;;;;;5052616;28;20029;-84
2021/05/20 02:54:11;;;;;;;10.60;7.68;;;19.60;70.70;;;;;;5053372;28;20021;-86
2021/05/20 02:56:37;;;;;;;11.77;7.45;;;19.60;70.40;;;;;;5055657;28;20031;-86
2021/05/20 02:59:05;;;;;;;9.48;6.82;;;19.70;70.40;;;;;;5055378;28;20075;-86
2021/05/20 03:01:38;;;;;;;7.53;6.30;;;19.80;69.70;;;;;;5034222;28;20394;-87
2021/05/20 03:04:04;;;;;;;7.25;6.55;;;19.90;69.20;;;;;;5052207;28;20017;-86
2021/05/20 03:06:30;;;;;;;7.07;6.38;;;20.00;69.00;;;;;;5034214;28;20036;-85
2021/05/20 03:08:57;;;;;;;8.27;6.32;;;20.10;68.60;;;;;;5053241;28;20029;-85
2021/05/20 03:11:25;;;;;;;8.57;6.03;;;20.20;68.50;;;;;;5052665;28;20060;-84
2021/05/20 03:13:51;;;;;;;10.63;7.32;;;20.30;68.00;;;;;;5052213;28;20355;-87
2021/05/20 03:16:17;;;;;;;8.07;6.75;;;20.30;67.30;;;;;;5041611;28;20024;-85
2021/05/20 03:18:43;;;;;;;10.10;6.95;;;20.30;67.60;;;;;;5056687;28;20036;-84
2021/05/20 03:21:09;;;;;;;9.00;7.10;;;20.40;67.40;;;;;;5058272;28;20042;-88
2021/05/20 03:23:35;;;;;;;9.68;7.13;;;20.40;67.50;;;;;;5059643;28;20390;-86
2021/05/20 03:26:01;;;;;;;11.38;6.65;;;20.40;67.40;;;;;;5058664;28;20147;-88
2021/05/20 03:28:27;;;;;;;10.10;7.22;;;20.50;67.10;;;;;;5048734;28;20085;-86
2021/05/20 03:30:53;;;;;;;10.73;6.57;;;20.60;66.60;;;;;;5036517;28;20067;-85
2021/05/20 03:33:20;;;;;;;9.13;5.97;;;20.70;66.50;;;;;;5020462;28;20387;-86
2021/05/20 03:35:46;;;;;;;6.85;6.03;;;20.60;66.30;;;;;;5036929;28;20029;-85
2021/05/20 03:38:12;;;;;;;9.43;6.95;;;20.60;65.30;;;;;;5020892;28;20025;-88
2021/05/20 03:40:38;;;;;;;6.90;6.20;;;20.30;65.90;;;;;;5037639;28;20052;-88
2021/05/20 03:43:03;;;;;;;7.63;6.70;;;20.10;67.20;;;;;;5036613;28;20537;-86
2021/05/20 03:45:29;;;;;;;7.35;6.63;;;20.20;67.60;;;;;;5036237;28;20018;-89
2021/05/20 03:47:55;;;;;;;10.68;6.97;;;20.20;67.50;;;;;;5035312;28;20017;-84
2021/05/20 03:50:21;;;;;;;9.65;6.78;;;20.20;68.60;;;;;;5010702;28;20025;-84
2021/05/20 03:52:47;;;;;;;8.52;6.55;;;20.30;68.30;;;;;;5027561;28;20025;-84
2021/05/20 03:55:13;;;;;;;9.32;6.90;;;20.40;67.40;;;;;;5037751;28;20093;-90
2021/05/20 03:57:39;;;;;;;10.20;7.53;;;20.40;67.10;;;;;;5040563;28;20025;-89
2021/05/20 04:00:06;;;;;;;9.65;6.85;;;20.30;67.00;;;;;;5042279;28;20093;-88
2021/05/20 04:02:33;;;;;;;10.07;6.70;;;20.20;68.00;;;;;;5040037;28;20104;-85
2021/05/20 04:04:59;;;;;;;12.05;7.30;;;20.20;68.00;;;;;;5036888;28;20467;-86
2021/05/20 04:07:25;;;;;;;7.65;6.90;;;20.30;67.80;;;;;;5039221;28;20086;-87
2021/05/20 04:09:52;;;;;;;9.88;7.68;;;20.20;68.30;;;;;;5041785;28;20022;-86
2021/05/20 04:12:18;;;;;;;9.02;7.15;;;20.20;68.10;;;;;;5048045;28;20030;-86
2021/05/20 04:14:44;;;;;;;10.35;7.60;;;20.30;68.10;;;;;;5043307;28;20040;-89
2021/05/20 04:17:09;;;;;;;7.45;6.75;;;20.20;68.30;;;;;;5019257;28;20021;-88
2021/05/20 04:19:35;;;;;;;11.82;8.02;;;20.10;68.60;;;;;;5033581;28;20022;-89
2021/05/20 04:22:01;;;;;;;10.55;7.20;;;20.10;69.60;;;;;;5030803;28;20534;-87
2021/05/20 04:24:27;;;;;;;8.55;7.60;;;20.10;69.60;;;;;;5035171;28;20148;-85
2021/05/20 04:26:53;;;;;;;10.50;6.75;;;20.30;69.20;;;;;;5042660;28;20490;-86
2021/05/20 04:29:20;;;;;;;8.80;6.57;;;20.50;68.80;;;;;;5037445;28;20068;-87
2021/05/20 04:31:46;;;;;;;9.30;7.15;;;20.60;67.90;;;;;;5019984;28;20486;-83
2021/05/20 04:34:12;;;;;;;10.07;6.65;;;20.60;67.50;;;;;;5037116;28;20099;-86
2021/05/20 04:36:39;;;;;;;9.38;7.22;;;20.60;67.60;;;;;;5036238;28;20437;-86
2021/05/20 04:39:05;;;;;;;8.85;6.95;;;20.30;67.80;;;;;;5034531;28;20033;-85
2021/05/20 04:41:32;;;;;;;10.70;6.10;;;20.30;68.60;;;;;;5034400;28;20034;-86
2021/05/20 04:43:58;;;;;;;7.32;5.82;;;20.50;68.10;;;;;;5034224;28;20040;-87
2021/05/20 04:46:25;;;;;;;13.68;6.85;;;20.40;68.10;;;;;;5034118;28;20029;-86
2021/05/20 04:48:50;;;;;;;9.90;5.93;;;20.40;67.70;;;;;;5034604;28;20494;-86
2021/05/20 04:51:17;;;;;;;6.88;5.15;;;20.10;68.70;;;;;;5032023;28;20107;-87
2021/05/20 04:53:44;;;;;;;8.23;5.70;;;19.80;69.50;;;;;;5017018;28;20020;-85
2021/05/20 04:56:10;;;;;;;11.18;4.68;;;19.70;70.20;;;;;;5033880;28;20037;-84
2021/05/20 04:58:36;;;;;;;6.43;5.22;;;19.80;70.20;;;;;;5033623;28;20391;-82
2021/05/20 05:01:02;;;;;;;5.80;4.82;;;19.80;69.20;;;;;;5034026;28;20496;-85
2021/05/20 05:03:28;;;;;;;10.05;5.57;;;19.40;69.70;;;;;;5034016;28;20064;-84
2021/05/20 05:05:54;;;;;;;8.20;4.82;;;19.30;71.00;;;;;;5034836;28;20061;-84
2021/05/20 05:08:20;;;;;;;7.13;5.38;;;19.30;71.10;;;;;;5036334;28;20022;-89
2021/05/20 05:10:46;;;;;;;9.70;4.40;;;19.40;71.30;;;;;;5048109;28;20025;-87
2021/05/20 05:13:18;;;;;;;10.25;4.68;;;19.50;70.20;;;;;;5050694;28;20025;-90
2021/05/20 05:15:44;;;;;;;7.13;5.13;;;19.50;70.90;;;;;;5050215;28;20021;-89
2021/05/20 05:18:10;;;;;;;10.07;4.15;;;19.50;70.50;;;;;;5034347;28;20025;-88
2021/05/20 05:20:36;;;;;;;8.48;4.50;;;19.40;70.10;;;;;;5025777;28;20543;-92
2021/05/20 05:23:04;;;;;;;6.22;4.97;;;19.30;70.60;;;;;;5036474;28;20379;-87
2021/05/20 05:25:29;;;;;;;7.45;5.18;;;19.20;71.20;;;;;;5009729;28;20174;-86
2021/05/20 05:27:55;;;;;;;7.55;4.93;;;19.30;71.50;;;;;;5023079;28;20049;-85
2021/05/20 05:30:22;;;;;;;7.15;3.83;;;19.20;71.00;;;;;;5056275;28;20024;-83
2021/05/20 05:32:48;;;;;;;4.22;3.08;;;19.00;70.60;;;;;;5048484;28;20029;-88
2021/05/20 05:35:13;;;;;;;8.20;4.28;;;18.90;70.60;;;;;;5037632;28;20045;-89
2021/05/20 05:37:40;;;;;;;5.20;4.07;;;18.80;71.50;;;;;;5053080;28;20025;-88
2021/05/20 05:40:06;;;;;;;5.57;3.58;;;19.10;70.30;;;;;;5036485;28;20104;-85
2021/05/20 05:42:34;;;;;;;4.27;3.53;;;19.20;69.70;;;;;;5057330;28;20032;-89
2021/05/20 05:45:00;;;;;;;4.85;3.72;;;19.30;68.80;;;;;;5061466;28;20099;-88
2021/05/20 05:47:26;;;;;;;4.75;3.80;;;19.00;69.40;;;;;;5055353;28;20524;-90
2021/05/20 05:49:53;;;;;;;8.93;3.97;;;18.90;70.00;;;;;;5054873;28;20036;-90
2021/05/20 05:52:23;;;;;;;5.00;3.30;;;18.70;70.50;;;;;;5048658;28;20451;-89
2021/05/20 05:54:52;;;;;;;8.57;4.72;;;18.70;70.70;;;;;;5040251;28;20097;-90
2021/05/20 05:57:18;;;;;;;10.02;3.55;;;19.50;69.50;;;;;;5054553;28;20020;-90
2021/05/20 05:59:44;;;;;;;4.55;3.45;;;19.90;66.90;;;;;;5071876;28;20069;-87
2021/05/20 06:02:13;;;;;;;5.53;3.20;;;20.20;65.60;;;;;;5052268;28;20104;-89
2021/05/20 06:04:39;;;;;;;4.20;3.15;;;20.00;64.90;;;;;;5038758;28;20047;-91
2021/05/20 06:07:04;;;;;;;6.03;3.55;;;19.90;64.90;;;;;;5057993;28;20028;-89
2021/05/20 06:09:30;;;;;;;7.85;3.75;;;19.80;65.80;;;;;;5057283;28;20088;-90
2021/05/20 06:11:57;;;;;;;4.78;3.65;;;20.10;65.60;;;;;;5064778;28;20017;-86
2021/05/20 06:14:23;;;;;;;10.88;4.80;;;20.00;65.10;;;;;;5069032;28;20024;-89
2021/05/20 06:16:49;;;;;;;5.03;4.35;;;20.00;66.50;;;;;;5033553;28;20033;-92
2021/05/20 06:19:15;;;;;;;9.38;5.10;;;20.10;65.30;;;;;;5055732;28;20025;-92
2021/05/20 06:21:41;;;;;;;6.78;4.03;;;20.00;65.40;;;;;;5056427;28;20385;-90
2021/05/20 06:24:07;;;;;;;7.68;3.90;;;19.70;65.90;;;;;;5057131;28;20021;-90
2021/05/20 06:26:33;;;;;;;5.38;4.38;;;19.60;66.70;;;;;;5040527;28;20124;-90
2021/05/20 06:29:00;;;;;;;10.10;4.68;;;19.30;67.70;;;;;;5041952;28;20483;-90
2021/05/20 06:31:27;;;;;;;5.65;3.97;;;19.20;67.90;;;;;;5065513;28;20028;-89
2021/05/20 06:33:53;;;;;;;5.45;4.20;;;19.20;68.40;;;;;;5068782;28;20082;-89
2021/05/20 06:36:19;;;;;;;12.65;5.03;;;19.10;68.80;;;;;;5044123;28;20017;-90
2021/05/20 06:38:45;;;;;;;7.20;4.82;;;18.90;69.60;;;;;;5057378;28;20013;-91
2021/05/20 06:41:11;;;;;;;7.72;5.68;;;18.80;70.30;;;;;;5055893;28;20031;-90
2021/05/20 06:43:38;;;;;;;7.70;5.85;;;18.70;71.60;;;;;;5056720;28;20021;-91
2021/05/20 06:46:07;;;;;;;9.38;4.97;;;18.70;72.50;;;;;;5060994;28;20025;-89
2021/05/20 06:48:34;;;;;;;8.07;5.40;;;18.70;73.20;;;;;;5065690;28;20031;-90
2021/05/20 06:51:00;;;;;;;10.55;6.32;;;18.50;73.60;;;;;;5067880;28;20043;-92
2021/05/20 06:53:29;;;;;;;9.55;6.70;;;18.20;76.20;;;;;;5050791;28;20024;-90
2021/05/20 06:55:59;;;;;;;8.40;6.97;;;18.00;78.20;;;;;;5065118;28;20066;-91
2021/05/20 07:01:10;;;;;;;9.65;7.88;;;18.20;79.70;;;;;;5060989;28;20079;-89
2021/05/20 07:03:36;;;;;;;12.57;7.68;;;18.40;80.20;;;;;;5060156;28;20017;-88
2021/05/20 07:06:02;;;;;;;10.77;7.70;;;18.40;80.80;;;;;;5060720;28;20150;-89
2021/05/20 07:08:38;;;;;;;11.40;8.00;;;18.70;79.80;;;;;;5057912;28;20099;-91
2021/05/20 07:11:05;;;;;;;9.90;7.60;;;18.80;79.50;;;;;;5039930;28;20040;-90
2021/05/20 07:13:33;;;;;;;10.55;7.03;;;19.10;78.20;;;;;;5057809;28;20032;-90
2021/05/20 07:15:59;;;;;;;9.98;7.18;;;19.30;76.50;;;;;;5041353;28;20043;-90
2021/05/20 07:18:25;;;;;;;6.88;6.18;;;19.40;75.40;;;;;;5059481;28;20526;-91
2021/05/20 07:20:51;;;;;;;10.68;7.28;;;19.40;75.10;;;;;;5059690;28;20013;-88
2021/05/20 07:23:20;;;;;;;10.43;6.82;;;19.90;74.80;;;;;;5059795;28;20028;-89
2021/05/20 07:25:46;;;;;;;9.57;7.03;;;20.30;71.90;;;;;;5057760;28;20478;-90
2021/05/20 07:28:13;;;;;;;10.07;6.85;;;20.70;71.20;;;;;;5051388;28;20101;-90
2021/05/20 07:30:39;;;;;;;9.23;7.00;;;20.80;69.20;;;;;;5019913;28;20025;-88
2021/05/20 07:33:06;;;;;;;8.40;6.72;;;20.80;69.30;;;;;;5037477;28;20030;-91
2021/05/20 07:35:31;;;;;;;9.23;7.53;;;20.90;69.50;;;;;;5020847;28;20061;-89
2021/05/20 07:37:57;;;;;;;9.25;7.45;;;21.10;68.40;;;;;;5020145;28;20036;-88
2021/05/20 07:40:24;;;;;;;9.43;7.18;;;21.20;68.10;;;;;;5022900;28;20128;-90
2021/05/20 07:42:50;;;;;;;6.83;6.13;;;21.20;67.60;;;;;;5039104;28;20022;-91
2021/05/20 07:45:17;;;;;;;8.02;6.80;;;21.30;67.70;;;;;;5037954;28;20324;-88
2021/05/20 07:47:44;;;;;;;7.60;6.22;;;21.30;66.30;;;;;;5037159;28;20071;-90
2021/05/20 07:50:11;;;;;;;14.02;7.68;;;21.30;67.00;;;;;;5000936;28;20078;-88
2021/05/20 07:52:37;;;;;;;9.02;6.22;;;21.50;66.10;;;;;;5010693;28;20113;-89
2021/05/20 07:55:04;;;;;;;12.48;5.97;;;22.30;65.90;;;;;;5019633;28;20030;-89
2021/05/20 07:57:31;;;;;;;8.90;6.32;;;23.60;61.40;;;;;;5037203;28;20022;-89
2021/05/20 07:59:58;;;;;;;6.13;4.78;;;24.50;58.20;;;;;;5037145;28;20037;-89
2021/05/20 08:05:00;;;;;;;8.93;7.07;;;24.50;56.20;;;;;;5038273;28;20048;-92
2021/05/20 08:07:35;;;;;;;8.10;5.05;;;24.30;56.50;;;;;;5040793;28;20128;-91
2021/05/20 08:12:37;;;;;;;11.73;6.65;;;23.60;57.90;;;;;;5046618;28;20017;-91
2021/05/20 08:15:04;;;;;;;10.20;6.00;;;23.20;58.70;;;;;;5053521;28;20041;-87
2021/05/20 08:17:30;;;;;;;13.00;7.63;;;22.90;59.60;;;;;;5045305;28;20120;-89
2021/05/20 08:19:57;;;;;;;11.35;6.50;;;22.60;61.50;;;;;;5044836;28;20017;-88
2021/05/20 08:22:22;;;;;;;10.52;7.25;;;22.70;61.40;;;;;;5032747;28;20034;-90
2021/05/20 08:24:48;;;;;;;18.80;10.90;;;22.70;61.30;;;;;;5040991;28;20021;-89
2021/05/20 08:27:14;;;;;;;10.63;6.05;;;22.40;61.60;;;;;;5049249;28;20028;-88
2021/05/20 08:29:41;;;;;;;8.38;6.47;;;22.30;62.60;;;;;;5040978;28;20018;-91
2021/05/20 08:32:07;;;;;;;12.70;7.78;;;22.20;61.40;;;;;;5022848;28;20510;-90
2021/05/20 08:34:33;;;;;;;11.70;7.05;;;22.00;62.90;;;;;;5050302;28;20021;-90
2021/05/20 08:37:01;;;;;;;10.07;7.85;;;21.80;63.00;;;;;;5025314;28;20029;-88
2021/05/20 08:39:28;;;;;;;9.57;6.15;;;21.60;63.90;;;;;;5038894;28;20021;-92
2021/05/20 08:41:54;;;;;;;10.00;6.65;;;21.30;64.60;;;;;;5013762;28;20380;-90
2021/05/20 08:44:24;;;;;;;12.60;7.55;;;21.30;63.70;;;;;;5031501;28;20018;-90
2021/05/20 08:46:51;;;;;;;10.52;6.10;;;21.20;63.90;;;;;;5038574;28;20043;-89
2021/05/20 08:49:16;;;;;;;10.55;6.68;;;21.30;62.80;;;;;;5020662;28;20124;-90
2021/05/20 08:51:47;;;;;;;6.82;5.95;;;21.70;62.80;;;;;;5038554;28;20482;-90
2021/05/20 08:54:14;;;;;;;10.82;6.20;;;23.70;59.40;;;;;;5020966;28;20052;-89
2021/05/20 08:56:47;;;;;;;14.85;6.55;;;26.70;52.90;;;;;;5024817;28;20109;-92
2021/05/20 08:59:13;;;;;;;13.45;5.95;;;28.60;48.20;;;;;;5030443;28;20430;-92
2021/05/20 09:01:42;;;;;;;12.60;5.30;;;29.00;45.80;;;;;;5015887;28;20041;-91
2021/05/20 09:04:10;;;;;;;13.70;7.22;;;28.70;45.30;;;;;;5020337;28;20479;-91
2021/05/20 09:06:36;;;;;;;11.98;7.07;;;27.90;45.50;;;;;;5021373;28;20037;-90
2021/05/20 09:09:04;;;;;;;8.68;5.18;;;27.10;47.10;;;;;;5039911;28;20029;-90
2021/05/20 09:11:30;;;;;;;7.80;4.35;;;26.40;47.70;;;;;;5023331;28;20083;-91
2021/05/20 09:14:04;;;;;;;6.27;5.13;;;25.50;49.00;;;;;;5023423;28;20030;-89
2021/05/20 09:16:35;;;;;;;8.98;5.40;;;24.70;50.00;;;;;;5020704;28;20092;-91
2021/05/20 09:19:02;;;;;;;13.40;6.30;;;24.10;51.20;;;;;;5037344;28;20037;-90
2021/05/20 09:21:28;;;;;;;14.63;6.97;;;23.70;52.90;;;;;;5039395;28;20029;-90
2021/05/20 09:23:54;;;;;;;9.25;6.47;;;23.40;54.10;;;;;;5022386;28;20017;-90
2021/05/20 09:26:33;;;;;;;10.38;5.95;;;23.00;55.40;;;;;;5044560;28;20120;-89
2021/05/20 09:29:07;;;;;;;9.27;7.32;;;22.70;56.20;;;;;;5047010;28;20050;-89
2021/05/20 09:31:43;;;;;;;11.98;7.45;;;22.20;58.20;;;;;;5066199;28;20077;-91
2021/05/20 09:34:16;;;;;;;15.25;8.80;;;21.90;60.10;;;;;;5044743;28;20059;-90
2021/05/20 09:36:50;;;;;;;12.23;7.90;;;21.40;62.30;;;;;;5045399;28;20032;-89
2021/05/20 09:39:20;;;;;;;10.70;7.93;;;21.20;63.30;;;;;;5057604;28;20474;-89
2021/05/20 09:41:45;;;;;;;10.85;7.47;;;21.20;63.80;;;;;;5056065;28;20419;-90
2021/05/20 09:44:31;;;;;;;16.30;9.38;;;21.30;63.60;;;;;;5055830;28;20036;-90
2021/05/20 09:47:01;;;;;;;11.98;8.50;;;21.60;63.40;;;;;;5056509;28;20033;-90
2021/05/20 09:49:28;;;;;;;11.43;8.20;;;21.90;63.00;;;;;;5056400;28;20060;-91
2021/05/20 09:52:23;;;;;;;9.80;7.65;;;21.60;62.80;;;;;;5056047;28;20017;-93
2021/05/20 09:54:52;;;;;;;12.27;8.20;;;21.50;63.50;;;;;;5057351;28;20111;-91
2021/05/20 09:57:35;;;;;;;20.83;8.00;;;21.30;63.30;;;;;;5060018;28;20506;-92
2021/05/20 10:00:16;;;;;;;9.48;6.95;;;21.00;63.50;;;;;;5055911;28;20406;-89
2021/05/20 10:02:44;;;;;;;9.98;7.53;;;20.60;65.30;;;;;;5056634;28;20397;-91
2021/05/20 10:05:34;;;;;;;11.13;7.88;;;20.60;65.90;;;;;;5054338;28;20045;-90
2021/05/20 10:08:06;;;;;;;11.45;8.25;;;20.70;66.00;;;;;;5048312;28;20052;-90
2021/05/20 10:10:39;;;;;;;14.15;8.80;;;20.80;65.30;;;;;;5040988;28;20025;-90
2021/05/20 10:13:13;;;;;;;10.60;6.03;;;21.10;64.50;;;;;;5060901;28;20017;-89
2021/05/20 10:15:40;;;;;;;12.93;6.65;;;21.50;62.90;;;;;;5070270;28;20025;-92
2021/05/20 10:18:12;;;;;;;6.53;4.63;;;23.00;61.10;;;;;;5044233;28;20028;-90
2021/05/20 10:20:40;;;;;;;8.45;5.78;;;25.40;54.30;;;;;;5038292;28;20029;-91
2021/05/20 10:23:12;;;;;;;11.23;7.07;;;26.90;49.90;;;;;;5025581;28;20021;-91
2021/05/20 10:25:39;;;;;;;9.38;6.28;;;26.50;48.30;;;;;;5044603;28;20021;-90
2021/05/20 10:28:09;;;;;;;;;;;25.90;50.10;;;;;;5030153;28;20049;-90
2021/05/20 10:30:40;;;;;;;9.05;6.80;;;25.60;51.10;;;;;;5011688;28;20273;-91
2021/05/20 10:33:07;;;;;;;9.32;5.82;;;25.20;51.50;;;;;;5023470;28;20045;-91
2021/05/20 10:35:48;;;;;;;16.10;10.05;;;25.00;51.30;;;;;;5031068;28;20033;-92
2021/05/20 10:38:24;;;;;;;5.38;4.72;;;25.00;51.30;;;;;;5018932;28;20017;-89
2021/05/20 10:41:19;;;;;;;5.40;4.90;;;24.90;50.00;;;;;;5021674;28;20030;-90
2021/05/20 10:43:50;;;;;;;14.20;8.35;;;24.60;50.10;;;;;;5025479;28;20258;-90
2021/05/20 10:46:20;;;;;;;12.90;7.07;;;24.10;52.00;;;;;;5023147;28;20061;-89
2021/05/20 10:49:02;;;;;;;10.98;8.05;;;23.80;52.40;;;;;;5037736;28;20056;-91
2021/05/20 10:51:32;;;;;;;15.60;7.88;;;23.50;53.30;;;;;;5035545;28;20029;-88
2021/05/20 10:54:09;;;;;;;8.02;6.13;;;23.00;55.00;;;;;;5035748;28;20018;-89
2021/05/20 10:56:38;;;;;;;12.82;6.88;;;22.80;55.40;;;;;;5018652;28;20087;-90
2021/05/20 10:59:30;;;;;;;11.65;5.47;;;22.70;55.10;;;;;;5039065;28;20033;-88
2021/05/20 11:01:56;;;;;;;5.85;3.63;;;22.70;53.30;;;;;;5018716;28;20018;-89
2021/05/20 11:04:38;;;;;;;7.10;4.30;;;22.70;52.80;;;;;;5037302;28;20048;-89
2021/05/20 11:07:05;;;;;;;3.78;3.33;;;22.90;52.90;;;;;;5040911;28;20071;-89
2021/05/20 11:10:10;;;;;;;7.17;4.43;;;23.00;51.70;;;;;;5045217;28;20021;-91
2021/05/20 11:12:55;;;;;;;6.28;4.63;;;23.00;52.30;;;;;;5021524;28;20349;-89
2021/05/20 11:15:22;;;;;;;8.38;4.60;;;22.70;53.30;;;;;;5035000;28;20144;-89
2021/05/20 11:17:47;;;;;;;5.67;4.57;;;22.40;53.30;;;;;;5012531;28;20013;-90
2021/05/20 11:20:32;;;;;;;11.02;5.20;;;22.20;53.60;;;;;;5025503;28;20113;-89
2021/05/20 11:23:17;;;;;;;10.38;5.18;;;22.00;54.20;;;;;;5036435;28;20020;-90
2021/05/20 11:25:45;;;;;;;7.65;4.97;;;22.00;55.10;;;;;;5036827;28;20022;-89
2021/05/20 11:28:11;;;;;;;8.95;4.53;;;22.10;54.70;;;;;;5048851;28;20041;-90
2021/05/20 11:30:37;;;;;;;12.63;4.15;;;22.30;54.00;;;;;;5036293;28;20025;-91
2021/05/20 11:33:04;;;;;;;14.75;8.75;;;22.40;53.80;;;;;;5004698;28;20428;-90
2021/05/20 11:35:38;;;;;;;10.20;4.80;;;22.50;53.90;;;;;;5036144;28;20482;-91
2021/05/20 11:38:03;;;;;;;8.13;4.72;;;22.50;53.80;;;;;;5021266;28;20041;-91
2021/05/20 11:40:32;;;;;;;9.68;4.93;;;22.60;53.60;;;;;;5021116;28;20105;-91
2021/05/20 11:43:02;;;;;;;11.30;4.93;;;22.90;53.30;;;;;;5037431;28;20381;-89
2021/05/20 11:45:33;;;;;;;6.88;4.13;;;23.00;52.50;;;;;;5029320;28;20365;-90
2021/05/20 11:48:01;;;;;;;6.18;4.07;;;23.10;52.60;;;;;;5022474;28;20037;-90
2021/05/20 11:50:29;;;;;;;10.40;4.40;;;23.00;52.30;;;;;;5040686;28;20021;-88
2021/05/20 11:52:55;;;;;;;5.97;3.60;;;22.80;51.90;;;;;;5043155;28;20025;-89
2021/05/20 11:55:23;;;;;;;13.32;3.72;;;22.30;50.50;;;;;;5041849;28;20017;-90
2021/05/20 11:58:09;;;;;;;6.10;3.92;;;21.90;52.10;;;;;;5025869;28;20075;-88
2021/05/20 12:00:35;;;;;;;9.63;4.77;;;21.80;52.70;;;;;;5029439;28;20030;-91
2021/05/20 12:03:02;;;;;;;10.63;5.82;;;21.80;53.20;;;;;;5025733;28;20063;-90
2021/05/20 12:05:28;;;;;;;7.97;2.75;;;22.00;53.00;;;;;;5030111;28;20025;-87
2021/05/20 12:07:53;;;;;;;15.80;6.90;;;22.20;52.10;;;;;;5041557;28;20052;-90
2021/05/20 12:10:22;;;;;;;7.13;5.00;;;22.50;51.70;;;;;;5041794;28;20022;-90
2021/05/20 12:13:01;;;;;;;3.83;3.47;;;22.80;50.20;;;;;;5043278;28;20459;-90
2021/05/20 12:15:29;;;;;;;7.53;3.00;;;23.00;48.60;;;;;;5049337;28;20026;-88
2021/05/20 12:18:01;;;;;;;8.07;4.78;;;22.90;47.80;;;;;;5052374;28;20009;-90
2021/05/20 12:20:29;;;;;;;5.68;2.78;;;22.70;49.20;;;;;;5042526;28;20052;-89
2021/05/20 12:22:55;;;;;;;6.85;3.88;;;22.90;49.10;;;;;;5043123;28;20028;-89
2021/05/20 12:25:23;;;;;;;5.65;3.13;;;22.90;49.10;;;;;;5045720;28;20142;-90
2021/05/20 12:27:51;;;;;;;6.80;3.75;;;22.70;49.40;;;;;;5042706;28;20057;-89
2021/05/20 12:30:26;;;;;;;8.60;4.05;;;22.60;50.30;;;;;;5040060;28;20103;-88
2021/05/20 12:32:53;;;;;;;7.88;3.60;;;22.50;51.10;;;;;;5041535;28;20052;-90
2021/05/20 12:35:26;;;;;;;9.20;6.10;;;22.50;50.40;;;;;;5048089;28;20048;-91
2021/05/20 12:38:07;;;;;;;15.30;5.80;;;22.40;51.30;;;;;;5029772;28;20041;-92
2021/05/20 12:40:54;;;;;;;8.27;4.53;;;22.30;51.70;;;;;;5040030;28;20025;-89
2021/05/20 12:43:34;;;;;;;7.57;4.45;;;22.20;51.20;;;;;;5017272;28;20178;-91
2021/05/20 12:46:05;;;;;;;4.82;3.47;;;22.00;51.70;;;;;;5030542;28;20032;-91
2021/05/20 12:48:34;;;;;;;6.90;4.22;;;21.70;51.80;;;;;;5019592;28;20025;-91
2021/05/20 12:51:06;;;;;;;6.70;3.95;;;21.50;52.60;;;;;;5020984;28;20088;-90
2021/05/20 12:53:35;;;;;;;7.15;4.38;;;21.40;52.80;;;;;;5020457;28;20029;-91
2021/05/20 12:56:24;;;;;;;8.00;5.07;;;21.40;53.40;;;;;;5038781;28;20071;-91